Time;durP1;ratioP1;P1;durP2;ratioP2;P2;SDS_P1;SDS_P2;PMS_P1;PMS_P2;Temp;Humidity;BMP_temperature;BMP_pressure;BME280_temperature;BME280_humidity;BME280_pressure;Samples;Min_cycle;Max_cycle;Signal;HPM_P1;HPM_P2
2021/11/20 00:01:36;;;;;;;22.60;18.43;;;8.60;99.90;;;;;;5011756;28;20207;-52
2021/11/20 00:04:03;;;;;;;22.13;18.50;;;8.50;99.90;;;;;;5010530;28;20176;-53
2021/11/20 00:06:33;;;;;;;23.57;19.43;;;8.40;99.90;;;;;;5009981;28;20743;-51
2021/11/20 00:08:59;;;;;;;23.10;19.60;;;8.50;99.90;;;;;;5010407;28;20751;-55
2021/11/20 00:11:28;;;;;;;21.83;19.23;;;8.50;99.90;;;;;;5011633;28;20231;-56
2021/11/20 00:13:55;;;;;;;23.53;18.63;;;8.60;99.90;;;;;;5017093;28;20255;-55
2021/11/20 00:16:23;;;;;;;24.77;19.70;;;8.70;99.90;;;;;;5015113;28;20266;-49
2021/11/20 00:18:50;;;;;;;25.77;19.37;;;8.50;99.90;;;;;;5011683;28;20276;-48
2021/11/20 00:21:32;;;;;;;29.07;20.90;;;8.30;99.90;;;;;;5013393;28;20262;-50
2021/11/20 00:24:00;;;;;;;24.73;20.40;;;8.20;99.90;;;;;;5011624;28;20169;-53
2021/11/20 00:26:33;;;;;;;25.30;21.10;;;8.20;99.90;;;;;;5010722;28;20234;-50
2021/11/20 00:31:36;;;;;;;29.23;22.10;;;8.10;99.90;;;;;;5015415;28;20199;-50
2021/11/20 00:34:02;;;;;;;38.70;23.07;;;8.00;99.90;;;;;;5015834;28;20669;-52
2021/11/20 00:36:28;;;;;;;28.93;21.93;;;7.90;99.90;;;;;;5015026;28;20208;-52
2021/11/20 00:38:53;;;;;;;29.07;22.70;;;7.80;99.90;;;;;;5015415;28;20240;-56
2021/11/20 00:41:23;;;;;;;30.27;22.03;;;7.70;99.90;;;;;;5015555;28;20716;-51
2021/11/20 00:43:49;;;;;;;28.83;21.70;;;7.60;99.90;;;;;;5015373;28;20231;-52
2021/11/20 00:46:17;;;;;;;31.07;23.10;;;7.80;99.90;;;;;;5020145;28;20678;-51
2021/11/20 00:48:45;;;;;;;28.57;22.20;;;7.90;99.90;;;;;;5015133;28;20180;-50
2021/11/20 00:51:12;;;;;;;30.37;22.83;;;8.00;99.90;;;;;;5015372;28;20662;-54
2021/11/20 00:53:38;;;;;;;31.97;22.63;;;8.00;99.90;;;;;;5015202;28;20192;-53
2021/11/20 00:56:06;;;;;;;27.10;21.43;;;7.90;99.90;;;;;;5015104;28;20204;-53
2021/11/20 00:58:32;;;;;;;31.73;22.87;;;7.80;99.90;;;;;;5015088;28;20176;-54
2021/11/20 01:01:00;;;;;;;29.40;22.43;;;7.80;99.90;;;;;;5015306;28;20212;-54
2021/11/20 01:03:28;;;;;;;28.27;21.80;;;7.90;99.90;;;;;;5015037;28;20180;-54
2021/11/20 01:05:54;;;;;;;26.27;20.40;;;7.90;99.90;;;;;;5014597;28;20196;-55
2021/11/20 01:08:22;;;;;;;27.87;21.47;;;8.00;99.90;;;;;;5015143;28;20183;-56
2021/11/20 01:10:53;;;;;;;28.27;22.63;;;8.30;99.90;;;;;;5014928;28;20588;-54
2021/11/20 01:13:19;;;;;;;27.10;21.47;;;8.40;99.90;;;;;;5015187;28;20184;-50
2021/11/20 01:15:49;;;;;;;29.43;21.87;;;8.40;99.90;;;;;;5014429;28;20658;-49
2021/11/20 01:18:19;;;;;;;25.63;20.67;;;8.60;99.90;;;;;;5014978;28;20223;-53
2021/11/20 01:20:45;;;;;;;28.37;20.27;;;8.50;99.90;;;;;;5018256;28;20219;-55
2021/11/20 01:23:13;;;;;;;26.00;20.10;;;8.60;99.90;;;;;;5014885;28;20177;-54
2021/11/20 01:25:38;;;;;;;25.93;20.50;;;8.70;99.90;;;;;;5014281;28;20187;-51
2021/11/20 01:28:05;;;;;;;25.63;19.80;;;8.80;99.90;;;;;;5014782;28;20617;-53
2021/11/20 01:30:31;;;;;;;24.27;19.63;;;8.80;99.90;;;;;;5014566;28;20169;-54
2021/11/20 01:32:57;;;;;;;24.03;19.97;;;8.70;99.90;;;;;;5014744;28;20188;-53
2021/11/20 01:35:24;;;;;;;26.20;20.83;;;8.70;99.90;;;;;;5014219;28;20176;-53
2021/11/20 01:37:50;;;;;;;27.73;20.07;;;8.60;99.90;;;;;;5014514;28;20273;-49
2021/11/20 01:40:19;;;;;;;24.53;20.30;;;8.40;99.90;;;;;;5014140;28;20716;-54
2021/11/20 01:42:45;;;;;;;23.53;19.70;;;8.20;99.90;;;;;;5014491;28;20632;-52
2021/11/20 01:45:17;;;;;;;23.80;18.83;;;8.10;99.90;;;;;;5013247;28;20200;-52
2021/11/20 01:48:20;;;;;;;25.73;19.80;;;8.10;99.90;;;;;;5014204;28;20192;-54
2021/11/20 01:50:50;;;;;;;21.77;17.97;;;8.00;99.90;;;;;;5014237;28;20642;-55
2021/11/20 01:53:40;;;;;;;24.23;18.83;;;8.00;99.90;;;;;;5014206;28;20188;-50
2021/11/20 01:56:11;;;;;;;23.10;18.37;;;8.10;99.90;;;;;;5013740;28;20606;-49
2021/11/20 01:58:52;;;;;;;23.20;17.70;;;8.10;99.90;;;;;;5013992;28;20219;-52
2021/11/20 02:01:47;;;;;;;21.87;18.17;;;8.20;99.90;;;;;;5014071;28;20204;-52
2021/11/20 02:04:25;;;;;;;22.80;17.80;;;8.10;99.90;;;;;;5012970;28;20663;-52
2021/11/20 02:07:10;;;;;;;21.50;17.13;;;8.10;99.90;;;;;;5013913;28;20790;-49
2021/11/20 02:09:47;;;;;;;20.67;17.23;;;8.20;99.90;;;;;;5013846;28;20524;-57
2021/11/20 02:12:20;;;;;;;20.87;17.17;;;8.30;99.90;;;;;;5014083;28;20161;-52
2021/11/20 02:14:47;;;;;;;22.90;18.20;;;8.50;99.90;;;;;;5013417;28;20194;-58
2021/11/20 02:17:18;;;;;;;21.70;17.00;;;8.60;99.90;;;;;;5013883;28;20204;-51
2021/11/20 02:19:51;;;;;;;22.57;16.77;;;8.50;99.90;;;;;;5013743;28;20737;-51
2021/11/20 02:22:40;;;;;;;20.07;16.97;;;8.50;99.90;;;;;;5013624;28;20651;-58
2021/11/20 02:25:06;;;;;;;22.00;16.97;;;8.20;99.90;;;;;;5013259;28;20156;-55
2021/11/20 02:27:35;;;;;;;20.10;17.33;;;8.20;99.90;;;;;;5015202;28;21419;-53
2021/11/20 02:30:22;;;;;;;19.63;16.70;;;8.30;99.90;;;;;;5013263;28;20594;-55
2021/11/20 02:32:58;;;;;;;20.33;16.90;;;8.40;99.90;;;;;;5013694;28;20164;-52
2021/11/20 02:35:31;;;;;;;20.80;17.93;;;8.60;99.90;;;;;;5012878;28;20527;-58
2021/11/20 02:37:58;;;;;;;22.33;17.07;;;8.70;99.90;;;;;;5013383;28;20679;-55
2021/11/20 02:40:25;;;;;;;20.67;17.43;;;8.50;99.90;;;;;;5013325;28;20705;-51
2021/11/20 02:42:51;;;;;;;21.70;17.43;;;8.50;99.90;;;;;;5013421;28;20168;-53
2021/11/20 02:45:23;;;;;;;19.70;17.10;;;8.50;99.90;;;;;;5012907;28;20179;-48
2021/11/20 02:47:49;;;;;;;23.20;17.90;;;8.70;99.90;;;;;;5013267;28;20567;-52
2021/11/20 02:50:15;;;;;;;22.40;17.17;;;8.60;99.90;;;;;;5012991;28;20215;-50
2021/11/20 02:52:41;;;;;;;22.67;17.33;;;8.70;99.90;;;;;;5012516;28;20173;-49
2021/11/20 02:55:07;;;;;;;20.93;16.60;;;8.80;99.90;;;;;;5012961;28;20181;-54
2021/11/20 02:57:37;;;;;;;20.23;16.73;;;8.90;99.90;;;;;;5012748;28;20286;-52
2021/11/20 03:00:10;;;;;;;21.47;16.27;;;8.90;99.90;;;;;;5013382;28;20659;-54
2021/11/20 03:02:35;;;;;;;21.63;17.17;;;8.70;99.90;;;;;;5012528;28;20176;-50
2021/11/20 03:05:01;;;;;;;21.37;15.93;;;8.60;99.90;;;;;;5012688;28;20311;-48
2021/11/20 03:07:27;;;;;;;20.20;16.37;;;8.60;99.90;;;;;;5012048;28;20671;-52
2021/11/20 03:09:53;;;;;;;20.50;16.47;;;8.70;99.90;;;;;;5012613;28;20295;-54
2021/11/20 03:12:19;;;;;;;19.87;15.77;;;8.70;99.90;;;;;;5012642;28;20263;-49
2021/11/20 03:14:45;;;;;;;19.70;15.83;;;8.80;99.90;;;;;;5012560;28;20239;-49
2021/11/20 03:17:11;;;;;;;19.00;15.90;;;8.60;99.90;;;;;;5012455;28;20192;-53
2021/11/20 03:19:44;;;;;;;18.73;15.60;;;8.70;99.90;;;;;;5012757;28;20172;-49
2021/11/20 03:22:31;;;;;;;19.77;15.07;;;8.90;99.90;;;;;;5012632;28;20586;-48
2021/11/20 03:24:57;;;;;;;18.77;15.80;;;8.90;99.90;;;;;;5008323;28;20243;-51
2021/11/20 03:27:23;;;;;;;17.97;14.73;;;9.20;99.90;;;;;;5012606;28;20191;-53
2021/11/20 03:29:49;;;;;;;18.60;14.90;;;9.20;99.90;;;;;;5012360;28;20711;-48
2021/11/20 03:32:15;;;;;;;20.80;16.00;;;9.10;99.90;;;;;;5012619;28;20558;-51
2021/11/20 03:34:42;;;;;;;17.73;15.33;;;9.10;99.90;;;;;;5010950;28;20180;-54
2021/11/20 03:37:09;;;;;;;18.70;15.30;;;8.90;99.90;;;;;;5012220;28;20215;-49
2021/11/20 03:39:35;;;;;;;17.33;14.70;;;8.90;99.90;;;;;;5012237;28;20634;-48
2021/11/20 03:42:02;;;;;;;18.97;14.40;;;8.90;99.90;;;;;;5012401;28;20203;-49
2021/11/20 03:44:28;;;;;;;18.00;14.33;;;9.00;99.90;;;;;;5012062;28;20171;-54
2021/11/20 03:46:53;;;;;;;18.20;14.73;;;9.00;99.90;;;;;;5011922;28;20197;-51
2021/11/20 03:49:20;;;;;;;16.97;13.47;;;9.10;99.90;;;;;;5012252;28;20210;-49
2021/11/20 03:51:46;;;;;;;17.50;14.20;;;9.10;99.90;;;;;;5012224;28;20670;-51
2021/11/20 03:54:12;;;;;;;16.67;14.40;;;9.00;99.90;;;;;;5012236;28;20181;-50
2021/11/20 03:56:38;;;;;;;16.60;14.03;;;9.00;99.90;;;;;;5011602;28;20200;-51
2021/11/20 03:59:05;;;;;;;16.97;13.90;;;9.10;99.90;;;;;;5012181;28;20188;-49
2021/11/20 04:01:31;;;;;;;16.67;14.27;;;9.10;99.90;;;;;;5011906;28;20746;-50
2021/11/20 04:03:57;;;;;;;16.33;14.10;;;9.00;99.90;;;;;;5011802;28;20176;-54
2021/11/20 04:06:24;;;;;;;14.93;13.27;;;9.00;99.90;;;;;;5011328;28;20184;-54
2021/11/20 04:08:51;;;;;;;17.47;14.30;;;9.10;99.90;;;;;;5012163;28;20252;-53
2021/11/20 04:11:20;;;;;;;17.57;14.00;;;9.10;99.90;;;;;;5011696;28;20251;-48
2021/11/20 04:13:46;;;;;;;16.80;13.83;;;9.20;99.90;;;;;;5012068;28;20231;-49
2021/11/20 04:16:16;;;;;;;16.97;14.37;;;9.20;99.90;;;;;;5011502;28;20686;-51
2021/11/20 04:18:44;;;;;;;18.37;14.07;;;9.10;99.90;;;;;;5011912;28;20187;-49
2021/11/20 04:21:11;;;;;;;17.63;14.77;;;9.10;99.90;;;;;;5011758;28;20941;-48
2021/11/20 04:23:37;;;;;;;17.93;14.00;;;9.20;99.90;;;;;;5011862;28;20172;-49
2021/11/20 04:26:04;;;;;;;17.97;14.50;;;9.10;99.90;;;;;;5011374;28;20173;-53
2021/11/20 04:28:30;;;;;;;16.17;14.10;;;9.20;99.90;;;;;;5011698;28;20161;-48
2021/11/20 04:30:56;;;;;;;17.93;14.47;;;9.10;99.90;;;;;;5011743;28;20230;-52
2021/11/20 04:33:22;;;;;;;18.43;13.93;;;9.20;99.90;;;;;;5011635;28;20190;-48
2021/11/20 04:35:48;;;;;;;19.77;15.20;;;9.10;99.90;;;;;;5011519;28;20552;-52
2021/11/20 04:38:14;;;;;;;17.83;14.20;;;9.20;99.90;;;;;;5027004;23;20288;-57
2021/11/20 04:40:40;;;;;;;19.47;14.83;;;9.10;99.90;;;;;;4967876;28;20579;-55
2021/11/20 04:43:07;;;;;;;16.43;14.37;;;9.00;99.90;;;;;;4973614;28;20184;-56
2021/11/20 04:45:34;;;;;;;18.40;15.33;;;8.90;99.90;;;;;;4989533;28;20172;-52
2021/11/20 04:48:02;;;;;;;19.20;14.93;;;9.00;99.90;;;;;;4978298;28;20550;-55
2021/11/20 04:50:29;;;;;;;20.00;15.37;;;9.00;99.90;;;;;;4972363;28;20181;-52
2021/11/20 04:52:54;;;;;;;18.10;15.13;;;8.80;99.90;;;;;;4972579;28;20176;-53
2021/11/20 04:55:20;;;;;;;17.23;14.83;;;8.70;99.90;;;;;;4967039;28;20635;-51
2021/11/20 04:57:46;;;;;;;20.20;16.30;;;8.50;99.90;;;;;;4972175;28;20723;-53
2021/11/20 05:00:19;;;;;;;18.10;15.27;;;8.30;99.90;;;;;;4972186;28;20595;-52
2021/11/20 05:02:45;;;;;;;22.30;17.03;;;8.30;99.90;;;;;;4972493;28;20177;-55
2021/11/20 05:05:11;;;;;;;20.23;16.67;;;8.30;99.90;;;;;;4972179;28;20224;-51
2021/11/20 05:07:37;;;;;;;21.13;16.43;;;8.20;99.90;;;;;;4972338;28;20201;-54
2021/11/20 05:10:05;;;;;;;20.07;16.40;;;8.00;99.90;;;;;;4972133;28;20178;-52
2021/11/20 05:12:31;;;;;;;19.33;15.63;;;8.00;99.90;;;;;;4967995;28;20555;-54
2021/11/20 05:14:56;;;;;;;20.07;15.27;;;8.00;99.90;;;;;;4973820;28;20185;-55
2021/11/20 05:17:22;;;;;;;19.60;15.43;;;8.20;99.90;;;;;;4975592;28;20200;-56
2021/11/20 05:19:47;;;;;;;18.40;15.63;;;8.30;99.90;;;;;;4975948;28;20747;-54
2021/11/20 05:22:13;;;;;;;19.30;15.60;;;8.40;99.90;;;;;;4975670;28;20584;-55
2021/11/20 05:24:39;;;;;;;19.97;16.10;;;8.40;99.90;;;;;;4975538;28;20178;-53
2021/11/20 05:27:06;;;;;;;18.53;15.27;;;8.50;99.90;;;;;;4975477;28;20201;-55
2021/11/20 05:29:51;;;;;;;19.80;15.27;;;8.70;99.90;;;;;;4975828;28;20176;-57
2021/11/20 05:32:17;;;;;;;18.20;14.80;;;8.70;99.90;;;;;;4975503;28;20177;-54
2021/11/20 05:34:42;;;;;;;19.50;16.17;;;8.70;99.90;;;;;;4975464;28;20663;-57
2021/11/20 05:37:08;;;;;;;17.90;15.53;;;8.70;99.90;;;;;;4975036;28;20353;-54
2021/11/20 05:39:34;;;;;;;20.27;16.57;;;8.70;99.90;;;;;;4975748;28;20174;-53
2021/11/20 05:42:00;;;;;;;20.43;16.23;;;8.40;99.90;;;;;;4975430;28;20209;-56
2021/11/20 05:44:26;;;;;;;19.93;16.03;;;8.30;99.90;;;;;;4975309;28;20166;-53
2021/11/20 05:46:58;;;;;;;20.40;16.13;;;8.30;99.90;;;;;;4971693;28;20739;-51
2021/11/20 05:49:24;;;;;;;19.60;14.70;;;8.40;99.90;;;;;;4975255;28;20261;-52
2021/11/20 05:51:49;;;;;;;19.23;15.70;;;8.60;99.90;;;;;;4975277;28;20209;-53
2021/11/20 05:54:15;;;;;;;19.10;15.47;;;8.50;99.90;;;;;;4975010;28;20629;-55
2021/11/20 05:56:40;;;;;;;19.90;15.73;;;8.60;99.90;;;;;;4974859;28;20185;-57
2021/11/20 05:59:06;;;;;;;20.37;16.00;;;8.60;99.90;;;;;;4975007;28;20186;-51
2021/11/20 06:01:32;;;;;;;21.03;16.57;;;8.50;99.90;;;;;;4975084;28;20197;-52
2021/11/20 06:03:58;;;;;;;20.87;16.80;;;8.40;99.90;;;;;;4973184;28;20178;-54
2021/11/20 06:06:24;;;;;;;19.13;15.23;;;8.30;99.90;;;;;;4973718;28;20189;-50
2021/11/20 06:08:49;;;;;;;18.30;15.07;;;8.20;99.90;;;;;;4973541;28;20174;-55
2021/11/20 06:11:17;;;;;;;19.00;15.30;;;8.20;99.90;;;;;;4973912;28;20184;-54
2021/11/20 06:13:44;;;;;;;17.83;15.03;;;8.20;99.90;;;;;;4974350;28;20198;-51
2021/11/20 06:16:09;;;;;;;19.73;15.57;;;8.20;99.90;;;;;;4974565;28;20178;-55
2021/11/20 06:18:35;;;;;;;19.50;16.07;;;8.10;99.90;;;;;;4974689;28;20558;-54
2021/11/20 06:21:03;;;;;;;20.10;15.40;;;8.10;99.90;;;;;;4957354;28;20213;-52
2021/11/20 06:23:30;;;;;;;19.37;15.83;;;8.20;99.90;;;;;;4974687;28;20166;-53
2021/11/20 06:25:58;;;;;;;19.93;16.17;;;8.20;99.90;;;;;;4973122;28;20170;-55
2021/11/20 06:28:24;;;;;;;21.40;16.40;;;8.30;99.90;;;;;;4974387;28;20182;-52
2021/11/20 06:30:50;;;;;;;20.13;15.97;;;8.40;99.90;;;;;;4974386;28;20174;-56
2021/11/20 06:33:16;;;;;;;21.27;16.20;;;8.50;99.90;;;;;;4974605;28;20174;-54
2021/11/20 06:35:41;;;;;;;19.87;16.20;;;8.40;99.90;;;;;;4973969;28;20181;-57
2021/11/20 06:38:07;;;;;;;21.47;16.90;;;8.50;99.90;;;;;;4973901;28;20217;-54
2021/11/20 06:40:42;;;;;;;20.60;16.47;;;8.50;99.90;;;;;;4956845;28;20206;-52
2021/11/20 06:43:11;;;;;;;19.67;15.73;;;8.50;99.90;;;;;;4973937;28;20216;-57
2021/11/20 06:45:39;;;;;;;19.27;15.60;;;8.50;99.90;;;;;;4974142;28;20252;-52
2021/11/20 06:48:05;;;;;;;19.57;15.73;;;8.50;99.90;;;;;;4973955;28;20580;-54
2021/11/20 06:50:34;;;;;;;20.40;15.87;;;8.70;99.90;;;;;;4974331;28;20181;-55
2021/11/20 06:53:03;;;;;;;21.33;16.77;;;8.70;99.90;;;;;;4974098;28;20649;-54
2021/11/20 06:55:30;;;;;;;20.17;15.83;;;8.70;99.90;;;;;;4972739;28;20182;-56
2021/11/20 06:58:19;;;;;;;20.17;16.47;;;8.70;99.90;;;;;;4971676;28;20186;-57
2021/11/20 07:00:52;;;;;;;20.73;16.30;;;8.70;99.90;;;;;;4971684;28;20214;-56
2021/11/20 07:03:24;;;;;;;20.53;16.87;;;8.70;99.90;;;;;;4972594;28;20216;-57
2021/11/20 07:05:55;;;;;;;21.13;16.87;;;9.20;99.90;;;;;;4972156;28;20249;-54
2021/11/20 07:08:22;;;;;;;22.03;17.13;;;8.50;99.90;;;;;;4972572;28;20331;-53
2021/11/20 07:10:48;;;;;;;21.07;16.53;;;8.50;99.90;;;;;;4972981;28;20178;-54
2021/11/20 07:13:15;;;;;;;20.53;16.90;;;8.40;99.90;;;;;;4972677;28;20197;-55
2021/11/20 07:15:41;;;;;;;21.83;16.87;;;8.40;99.90;;;;;;4972066;28;20185;-51
2021/11/20 07:18:07;;;;;;;20.37;16.37;;;8.30;99.90;;;;;;4972608;28;20345;-54
2021/11/20 07:20:36;;;;;;;22.20;16.07;;;8.50;99.90;;;;;;4972746;28;20201;-52
2021/11/20 07:23:02;;;;;;;19.70;16.47;;;8.50;99.90;;;;;;4972862;28;20166;-51
2021/11/20 07:25:30;;;;;;;21.33;17.13;;;8.50;99.90;;;;;;4972863;28;20178;-55
2021/11/20 07:27:56;;;;;;;20.67;16.17;;;8.50;99.90;;;;;;4973198;28;20213;-56
2021/11/20 07:30:23;;;;;;;23.80;17.23;;;8.70;99.90;;;;;;4972977;28;20174;-56
2021/11/20 07:32:50;;;;;;;18.47;14.90;;;8.70;99.90;;;;;;4973139;28;20265;-58
2021/11/20 07:35:35;;;;;;;19.20;14.93;;;8.70;99.90;;;;;;4972801;28;20197;-55
2021/11/20 07:38:03;;;;;;;23.90;16.10;;;8.70;99.90;;;;;;4971080;28;20280;-55
2021/11/20 07:40:32;;;;;;;18.60;14.83;;;8.50;99.90;;;;;;4972827;28;20220;-56
2021/11/20 07:42:57;;;;;;;19.20;15.27;;;8.20;99.90;;;;;;4972525;28;20261;-56
2021/11/20 07:45:24;;;;;;;17.63;14.57;;;8.10;99.90;;;;;;4972748;28;20209;-52
2021/11/20 07:47:49;;;;;;;20.47;15.83;;;8.00;99.90;;;;;;4972384;28;20248;-54
2021/11/20 07:50:16;;;;;;;19.63;15.67;;;7.90;99.90;;;;;;4972540;28;20189;-53
2021/11/20 07:52:44;;;;;;;20.77;15.90;;;7.90;99.90;;;;;;4972526;28;20178;-59
2021/11/20 07:55:12;;;;;;;20.27;14.90;;;8.00;99.90;;;;;;4972235;28;20170;-56
2021/11/20 07:57:39;;;;;;;20.77;15.20;;;7.90;99.90;;;;;;4973127;28;20256;-52
2021/11/20 08:00:17;;;;;;;18.97;15.23;;;7.80;99.90;;;;;;4972708;28;20174;-55
2021/11/20 08:02:43;;;;;;;20.13;16.27;;;7.90;99.90;;;;;;4972889;28;20181;-54
2021/11/20 08:05:09;;;;;;;20.10;15.60;;;8.00;99.90;;;;;;4972290;28;20170;-56
2021/11/20 08:07:36;;;;;;;20.57;16.50;;;8.10;99.90;;;;;;4972866;28;20198;-59
2021/11/20 08:10:09;;;;;;;21.23;16.30;;;8.10;99.90;;;;;;4972598;28;20201;-53
2021/11/20 08:12:35;;;;;;;19.90;15.43;;;8.20;99.90;;;;;;4972362;28;20169;-55
2021/11/20 08:15:01;;;;;;;22.80;17.27;;;8.20;99.90;;;;;;4972142;28;20304;-56
2021/11/20 08:17:27;;;;;;;21.23;16.10;;;8.30;99.90;;;;;;4972569;28;20201;-55
2021/11/20 08:19:53;;;;;;;19.33;16.13;;;8.30;99.90;;;;;;4972905;28;20647;-55
2021/11/20 08:22:19;;;;;;;21.20;17.13;;;8.20;99.90;;;;;;4972416;28;20229;-54
2021/11/20 08:24:45;;;;;;;20.10;16.43;;;8.20;99.90;;;;;;4972662;28;20212;-57
2021/11/20 08:27:11;;;;;;;22.17;16.80;;;8.20;99.90;;;;;;4972633;28;20193;-57
2021/11/20 08:29:40;;;;;;;21.20;17.10;;;8.30;99.90;;;;;;4972847;28;20165;-56
2021/11/20 08:32:08;;;;;;;21.17;16.77;;;8.30;99.90;;;;;;4972631;28;20548;-55
2021/11/20 08:34:34;;;;;;;22.90;17.73;;;8.30;99.90;;;;;;4973098;28;20608;-52
2021/11/20 08:37:00;;;;;;;22.07;17.17;;;8.40;99.90;;;;;;4972154;28;20208;-52
2021/11/20 08:39:28;;;;;;;21.23;17.53;;;8.40;99.90;;;;;;4972234;28;20174;-51
2021/11/20 08:41:54;;;;;;;21.33;17.17;;;8.30;99.90;;;;;;4972596;28;20213;-55
2021/11/20 08:44:19;;;;;;;21.53;16.90;;;8.10;99.90;;;;;;4972223;28;20510;-50
2021/11/20 08:46:46;;;;;;;21.93;17.07;;;8.10;99.90;;;;;;4972025;28;20186;-51
2021/11/20 08:49:13;;;;;;;21.50;17.30;;;8.20;99.90;;;;;;4973218;28;20158;-52
2021/11/20 08:51:39;;;;;;;19.30;15.80;;;8.30;99.90;;;;;;4976481;28;20177;-53
2021/11/20 08:54:05;;;;;;;22.37;17.50;;;8.50;99.90;;;;;;4976282;28;20185;-52
2021/11/20 08:56:34;;;;;;;19.90;16.23;;;8.70;99.90;;;;;;4975864;28;20201;-52
2021/11/20 08:59:00;;;;;;;19.90;15.63;;;8.70;99.90;;;;;;4976121;28;20664;-52
2021/11/20 09:01:36;;;;;;;21.70;16.80;;;8.90;99.90;;;;;;4976330;28;20237;-52
2021/11/20 09:04:26;;;;;;;19.53;15.97;;;8.90;99.90;;;;;;4975975;28;20169;-51
2021/11/20 09:07:06;;;;;;;20.80;16.43;;;9.00;99.90;;;;;;4975931;28;20538;-51
2021/11/20 09:09:41;;;;;;;20.70;16.60;;;9.00;99.90;;;;;;4975933;28;20177;-53
2021/11/20 09:12:12;;;;;;;20.47;16.80;;;9.30;99.90;;;;;;4971716;28;20177;-51
2021/11/20 09:14:38;;;;;;;18.33;15.90;;;9.50;99.90;;;;;;4975472;28;20174;-50
2021/11/20 09:17:04;;;;;;;17.37;14.57;;;9.70;99.90;;;;;;4975933;28;20266;-51
2021/11/20 09:19:33;;;;;;;18.07;15.43;;;9.80;99.90;;;;;;4976034;28;20181;-55
2021/11/20 09:22:00;;;;;;;18.40;14.83;;;9.90;99.90;;;;;;4975546;28;20197;-52
2021/11/20 09:24:28;;;;;;;20.10;14.90;;;10.00;99.90;;;;;;4975810;28;20170;-53
2021/11/20 09:26:54;;;;;;;18.07;14.87;;;9.80;99.90;;;;;;4975297;28;20198;-52
2021/11/20 09:29:21;;;;;;;16.43;13.43;;;9.50;99.90;;;;;;4975893;28;20671;-51
2021/11/20 09:31:47;;;;;;;16.40;13.77;;;9.50;99.90;;;;;;4975639;28;20178;-51
2021/11/20 09:34:16;;;;;;;16.50;14.00;;;9.30;99.90;;;;;;4975680;28;20176;-55
2021/11/20 09:36:43;;;;;;;17.07;13.50;;;9.40;99.90;;;;;;4974868;28;20169;-56
2021/11/20 09:39:11;;;;;;;16.17;13.67;;;9.40;99.90;;;;;;4975718;28;20257;-52
2021/11/20 09:42:14;;;;;;;15.83;12.93;;;9.40;99.90;;;;;;4975381;28;20711;-51
2021/11/20 09:44:46;;;;;;;16.07;13.03;;;9.40;99.90;;;;;;4975298;28;20174;-53
2021/11/20 09:47:34;;;;;;;15.57;13.20;;;9.30;99.90;;;;;;4975220;28;20193;-53
2021/11/20 09:50:23;;;;;;;15.70;12.27;;;9.40;99.90;;;;;;4975604;28;20256;-53
2021/11/20 09:52:49;;;;;;;15.23;12.73;;;9.60;99.90;;;;;;4975211;28;20174;-52
2021/11/20 09:55:23;;;;;;;14.47;12.20;;;9.80;99.90;;;;;;4974986;28;20178;-52
2021/11/20 09:57:59;;;;;;;15.13;13.53;;;10.00;99.90;;;;;;4975022;28;20190;-52
2021/11/20 10:00:49;;;;;;;14.70;13.17;;;10.30;99.90;;;;;;4975085;28;20228;-52
2021/11/20 10:03:46;;;;;;;15.43;12.97;;;10.50;99.90;;;;;;4975066;28;20174;-51
2021/11/20 10:06:29;;;;;;;16.10;13.00;;;10.20;99.90;;;;;;4891081;28;20192;-51
2021/11/20 10:09:09;;;;;;;14.87;12.43;;;10.00;99.90;;;;;;4974903;28;20169;-53
2021/11/20 10:11:38;;;;;;;15.90;13.17;;;10.10;99.90;;;;;;4975126;28;20676;-55
2021/11/20 10:14:12;;;;;;;15.00;12.57;;;10.30;99.90;;;;;;4974741;28;20166;-54
2021/11/20 10:16:55;;;;;;;14.73;12.30;;;10.20;99.90;;;;;;4975045;28;20189;-51
2021/11/20 10:19:32;;;;;;;14.63;13.03;;;10.20;99.90;;;;;;4974738;28;20649;-52
2021/11/20 10:22:13;;;;;;;13.97;12.10;;;10.30;99.90;;;;;;4974889;28;20220;-51
2021/11/20 10:24:52;;;;;;;15.53;12.87;;;10.30;99.90;;;;;;4974391;28;20177;-52
2021/11/20 10:27:55;;;;;;;15.07;12.97;;;10.30;99.90;;;;;;4974603;28;20185;-52
2021/11/20 10:30:39;;;;;;;13.60;11.43;;;10.30;99.90;;;;;;4974608;28;20180;-53
2021/11/20 10:33:08;;;;;;;14.27;11.97;;;10.20;99.90;;;;;;4974675;28;20166;-53
2021/11/20 10:35:48;;;;;;;13.87;11.83;;;10.00;99.90;;;;;;4974140;28;20210;-52
2021/11/20 10:38:20;;;;;;;14.73;12.43;;;10.00;99.90;;;;;;5007425;23;20234;-50
2021/11/20 10:41:04;;;;;;;13.07;11.67;;;10.20;99.90;;;;;;5006506;28;20699;-53
2021/11/20 10:43:50;;;;;;;15.33;12.97;;;10.20;99.90;;;;;;5005995;28;20243;-49
2021/11/20 10:46:32;;;;;;;13.90;12.40;;;10.30;99.90;;;;;;5012678;28;20187;-50
2021/11/20 10:49:27;;;;;;;13.37;11.90;;;10.50;99.90;;;;;;4990348;28;20197;-55
2021/11/20 10:52:04;;;;;;;13.40;11.90;;;10.60;99.90;;;;;;4993553;28;20573;-49
2021/11/20 10:55:01;;;;;;;15.30;12.90;;;10.70;99.90;;;;;;4993604;28;20176;-63
2021/11/20 10:57:37;;;;;;;13.20;11.70;;;10.60;99.90;;;;;;4992436;28;20216;-51
2021/11/20 11:00:02;;;;;;;14.13;12.67;;;10.60;99.90;;;;;;4993646;28;20161;-51
2021/11/20 11:02:52;;;;;;;13.67;11.97;;;10.60;99.90;;;;;;4993184;28;20639;-49
2021/11/20 11:05:41;;;;;;;13.57;12.00;;;10.80;99.90;;;;;;4993296;28;20538;-51
2021/11/20 11:08:27;;;;;;;13.07;11.63;;;10.90;99.90;;;;;;4993023;28;20194;-51
2021/11/20 11:11:26;;;;;;;14.57;12.33;;;11.00;99.90;;;;;;4993408;28;20179;-49
2021/11/20 11:14:03;;;;;;;13.27;11.73;;;10.90;99.90;;;;;;4992504;28;20177;-54
2021/11/20 11:16:44;;;;;;;14.77;12.43;;;10.80;99.90;;;;;;4992689;28;20177;-49
2021/11/20 11:19:54;;;;;;;20.30;15.77;;;11.00;99.90;;;;;;4992954;28;20217;-54
2021/11/20 11:22:25;;;;;;;20.83;16.50;;;10.90;99.90;;;;;;4990376;28;20702;-51
2021/11/20 11:25:13;;;;;;;13.27;11.87;;;10.80;99.90;;;;;;4991326;28;20259;-52
2021/11/20 11:28:15;;;;;;;15.43;13.80;;;10.80;99.90;;;;;;4993009;28;20189;-49
2021/11/20 11:31:10;;;;;;;15.63;13.60;;;10.80;99.90;;;;;;4992878;28;20197;-50
2021/11/20 11:33:43;;;;;;;12.77;11.33;;;10.40;99.90;;;;;;4992946;28;20169;-52
2021/11/20 11:36:29;;;;;;;11.93;10.60;;;10.80;99.90;;;;;;4992536;28;20177;-49
2021/11/20 11:39:48;;;;;;;14.20;11.37;;;10.80;99.90;;;;;;4992784;28;20622;-51
2021/11/20 11:42:51;;;;;;;13.07;11.67;;;10.90;99.90;;;;;;4951576;29;20649;-51
2021/11/20 11:45:38;;;;;;;12.73;11.10;;;11.00;99.90;;;;;;4951485;29;20177;-49
2021/11/20 11:48:18;;;;;;;13.90;12.27;;;11.00;99.90;;;;;;4951616;28;20202;-54
2021/11/20 11:51:28;;;;;;;12.27;10.97;;;11.10;99.90;;;;;;4951250;29;20661;-55
2021/11/20 11:54:08;;;;;;;12.40;11.10;;;11.20;99.90;;;;;;4951825;29;20186;-53
2021/11/20 11:56:38;;;;;;;14.27;11.80;;;11.20;99.90;;;;;;4951121;29;20182;-55
2021/11/20 11:59:37;;;;;;;13.53;11.60;;;11.30;99.90;;;;;;4951702;29;20298;-53
2021/11/20 12:02:02;;;;;;;13.47;12.07;;;11.30;99.90;;;;;;4950058;29;20202;-47
2021/11/20 12:04:40;;;;;;;13.80;12.17;;;11.20;99.90;;;;;;4950384;29;20213;-52
2021/11/20 12:07:08;;;;;;;13.33;11.93;;;11.20;99.90;;;;;;4949955;29;20213;-52
2021/11/20 12:09:45;;;;;;;13.73;12.23;;;11.20;99.90;;;;;;4949755;29;20178;-49
2021/11/20 12:12:25;;;;;;;14.43;11.77;;;11.30;99.90;;;;;;4961115;28;20259;-50
2021/11/20 12:14:51;;;;;;;12.93;11.53;;;11.40;99.90;;;;;;4992052;28;20173;-52
2021/11/20 12:17:23;;;;;;;13.83;12.33;;;11.50;99.90;;;;;;4991943;28;20204;-49
2021/11/20 12:20:12;;;;;;;14.83;12.47;;;11.50;99.90;;;;;;4992355;28;20177;-49
2021/11/20 12:23:27;;;;;;;12.83;11.43;;;11.50;99.90;;;;;;4991956;28;20201;-50
2021/11/20 12:26:20;;;;;;;13.17;11.33;;;11.50;99.90;;;;;;4935965;29;20182;-55
2021/11/20 12:28:59;;;;;;;13.53;11.57;;;11.40;99.90;;;;;;4935895;29;20258;-49
2021/11/20 12:32:02;;;;;;;13.10;11.70;;;11.30;99.90;;;;;;4936124;29;20179;-54
2021/11/20 12:34:45;;;;;;;11.90;10.70;;;11.30;99.90;;;;;;4935747;29;20610;-51
2021/11/20 12:37:26;;;;;;;12.00;10.17;;;11.30;99.90;;;;;;4934392;29;20734;-50
2021/11/20 12:40:15;;;;;;;12.03;10.73;;;11.40;99.90;;;;;;4934050;29;20223;-53
2021/11/20 12:42:48;;;;;;;12.67;11.27;;;11.50;99.90;;;;;;4934284;29;20202;-50
2021/11/20 12:46:12;;;;;;;13.67;11.43;;;11.40;99.90;;;;;;4934988;29;20709;-49
2021/11/20 12:48:58;;;;;;;14.60;11.43;;;11.50;99.90;;;;;;4897759;29;20212;-51
2021/11/20 12:51:48;;;;;;;13.17;11.50;;;11.20;99.90;;;;;;4935490;29;20634;-53
2021/11/20 12:54:51;;;;;;;12.13;10.93;;;11.20;99.90;;;;;;4935427;29;20657;-49
2021/11/20 12:57:40;;;;;;;12.47;11.13;;;11.10;99.90;;;;;;4935299;29;20315;-54
2021/11/20 13:00:09;;;;;;;12.50;11.17;;;10.90;99.90;;;;;;4970322;28;20197;-52
2021/11/20 13:02:55;;;;;;;12.87;11.57;;;10.80;99.90;;;;;;4995583;28;20767;-53
2021/11/20 13:05:39;;;;;;;12.67;11.37;;;10.80;99.90;;;;;;4995405;28;20173;-54